Mesena, GA (30819)

8:09 PM EDT on March 29, 2015 (GMT -0400)
Thomson-McDuffie County | | Change Station
CLOSE
Current Station
Airport
Location: Thomson,
Elevation: 499 ft
Nearby Weather Stations

Elev 499 ft 33.53 °N, 82.52 °W | Updated 14 minutes ago

Clear
Clear
56 °F
Feels Like 56 °F
N
0
Wind Variable Wind from North

Today
High -- | Low -- °F
--% Chance of Precip.
Yesterday
High -- | Low -- °F
Precip. -- in
7:22 AM 7:48 PM
Waxing Gibbous, 75% visible
Pressure 30.33 in
Visibility 10.0 miles
Clouds Clear
Dew Point 26 °F
Humidity 31%
Rainfall 0.00 in
Snow Depth Not available.
UV 0 out of 12
Pollen 8.60 out of 12
Air Quality Not available.
Flu Activity Not available.
METAR KHQU 292355Z AUTO 00000KT 10SM CLR 14/M04 A3033 RMK AO1 T01351036 10166 20126

More Conditions Fewer Conditions

Pressure 30.33 in
Visibility 10.0 miles
Clouds Clear
Dew Point 26 °F
Humidity 31%
Rainfall 0.00 in
Snow Depth Not available.
UV 0 out of 12
Pollen 8.60 out of 12
Air Quality Not available.
Flu Activity Not available.
METAR KHQU 292355Z AUTO 00000KT 10SM CLR 14/M04 A3033 RMK AO1 T01351036 10166 20126

More Conditions Fewer Conditions

10-Day Weather Forecast

Almanac

Astronomy

Mar. 29, 2015 Rise Set
Actual Time
Civil Twilight
Nautical Twilight
Astronomical Twilight
Moon
Length of Visible Light
Length of Day
Tomorrow will be .
, % of the Moon is Illuminated

Today's Extremes

State Highs State Lows

Community

WunderPhotos

Upload Photos

1,809,381 photos uploaded!

WunderBlogs® & News

Nearby

Air Quality

  Air Quality AQ Index Pollutant
Not available.

Snow Depth

Station Depth Elevation

Earthquake Activity

City Distance Mag. Time & Date
Minimum magnitude displayed is 2.5.

Coastal Water Temperatures

Place Temperature

Stations

Nearby Weather Stations

Station Location Temp. Windchill Dew Point Humidity Wind Precip. Elev Updated Type